Time;durP1;ratioP1;P1;durP2;ratioP2;P2;SDS_P1;SDS_P2;PMS_P1;PMS_P2;Temp;Humidity;BMP_temperature;BMP_pressure;BME280_temperature;BME280_humidity;BME280_pressure;Samples;Min_cycle;Max_cycle;Signal;HPM_P1;HPM_P2
2021/01/09 00:02:25;;;;;;;17.90;15.73;;;3.10;99.90;;;;;;5052795;28;21007;-69
2021/01/09 00:04:52;;;;;;;17.53;15.63;;;3.00;99.90;;;;;;5043145;28;20504;-68
2021/01/09 00:07:18;;;;;;;15.30;9.77;;;2.90;99.90;;;;;;5031307;28;20554;-69
2021/01/09 00:09:45;;;;;;;15.90;14.03;;;4.10;99.90;;;;;;5032215;28;20465;-69
2021/01/09 00:12:12;;;;;;;18.20;14.57;;;3.30;99.90;;;;;;5030913;28;20456;-69
2021/01/09 00:14:39;;;;;;;18.10;15.20;;;3.30;99.90;;;;;;5031437;28;20448;-69
2021/01/09 00:17:06;;;;;;;23.20;15.70;;;2.80;99.90;;;;;;5040427;28;20552;-69
2021/01/09 00:19:32;;;;;;;18.23;14.73;;;3.10;99.90;;;;;;5038857;28;20545;-69
2021/01/09 00:21:58;;;;;;;18.20;16.20;;;3.40;99.90;;;;;;5033260;28;20826;-69
2021/01/09 00:24:25;;;;;;;20.07;16.10;;;3.20;99.90;;;;;;5031850;28;20506;-70
2021/01/09 00:26:52;;;;;;;8.97;7.57;;;3.00;99.90;;;;;;5029126;28;20499;-70
2021/01/09 00:29:19;;;;;;;17.87;15.50;;;3.40;99.90;;;;;;5029401;28;20956;-70
2021/01/09 00:31:46;;;;;;;21.57;16.57;;;3.10;99.90;;;;;;5030633;28;20460;-68
2021/01/09 00:34:12;;;;;;;22.13;17.80;;;2.70;99.90;;;;;;5030232;28;20475;-67
2021/01/09 00:36:46;;;;;;;17.07;15.20;;;2.60;99.90;;;;;;5030278;28;20510;-68
2021/01/09 00:39:12;;;;;;;11.67;10.20;;;2.50;99.90;;;;;;5029818;28;20479;-65
2021/01/09 00:41:38;;;;;;;17.20;15.30;;;2.80;99.90;;;;;;5031444;28;21116;-69
2021/01/09 00:44:06;;;;;;;18.63;16.40;;;2.70;99.90;;;;;;5027870;28;20477;-69
2021/01/09 00:46:33;;;;;;;18.97;15.70;;;2.60;99.90;;;;;;5030217;28;20480;-69
2021/01/09 00:48:59;;;;;;;15.47;13.50;;;2.60;99.90;;;;;;5031065;28;20948;-70
2021/01/09 00:51:25;;;;;;;17.10;13.97;;;2.70;99.90;;;;;;5030460;28;20465;-70
2021/01/09 00:53:52;;;;;;;12.97;11.60;;;2.60;99.90;;;;;;5031687;28;20452;-70
2021/01/09 00:56:18;;;;;;;17.27;15.47;;;3.10;99.90;;;;;;5028018;28;20464;-70
2021/01/09 00:58:44;;;;;;;16.17;14.43;;;2.70;99.90;;;;;;5029661;28;20451;-70
2021/01/09 01:01:11;;;;;;;19.80;15.20;;;2.80;99.90;;;;;;5031233;28;20453;-68
2021/01/09 01:03:39;;;;;;;18.40;15.87;;;2.50;99.90;;;;;;5030527;28;20464;-70
2021/01/09 01:06:06;;;;;;;16.20;14.33;;;2.40;99.90;;;;;;5030438;28;20453;-69
2021/01/09 01:08:32;;;;;;;17.50;15.50;;;2.60;99.90;;;;;;5029982;28;20484;-70
2021/01/09 01:10:58;;;;;;;17.90;15.40;;;2.50;99.90;;;;;;5031358;28;20457;-70
2021/01/09 01:13:25;;;;;;;18.57;14.70;;;2.40;99.90;;;;;;5030864;28;20467;-69
2021/01/09 01:15:51;;;;;;;19.57;15.90;;;2.50;99.90;;;;;;5030621;28;20453;-69
2021/01/09 01:18:22;;;;;;;16.77;13.37;;;2.50;99.90;;;;;;5030938;28;20529;-70
2021/01/09 01:20:48;;;;;;;18.47;15.33;;;2.50;99.90;;;;;;5029981;28;20452;-69
2021/01/09 01:23:14;;;;;;;15.40;13.70;;;2.50;99.90;;;;;;5031098;28;20567;-69
2021/01/09 01:25:41;;;;;;;17.33;14.47;;;2.50;99.90;;;;;;5034542;28;20464;-69
2021/01/09 01:28:07;;;;;;;17.63;13.80;;;2.70;99.90;;;;;;5059231;23;20500;-61
2021/01/09 01:30:33;;;;;;;17.80;15.07;;;2.60;99.90;;;;;;5054438;28;20452;-63
2021/01/09 01:32:59;;;;;;;18.20;14.73;;;2.60;99.90;;;;;;5049471;28;20436;-63
2021/01/09 01:35:27;;;;;;;16.83;14.10;;;2.70;99.90;;;;;;5059502;28;20626;-62
2021/01/09 01:37:53;;;;;;;17.97;14.93;;;2.80;99.90;;;;;;5050061;28;20471;-62
2021/01/09 01:40:19;;;;;;;16.90;15.10;;;2.80;99.90;;;;;;5034539;28;20503;-63
2021/01/09 01:42:46;;;;;;;16.37;14.13;;;2.60;99.90;;;;;;5034419;28;20449;-65
2021/01/09 01:45:12;;;;;;;17.23;14.17;;;2.80;99.90;;;;;;5034177;28;20992;-62
2021/01/09 01:47:39;;;;;;;17.73;15.83;;;2.70;99.90;;;;;;5034165;28;20480;-63
2021/01/09 01:50:06;;;;;;;18.23;15.03;;;2.60;99.90;;;;;;5034697;28;20453;-63
2021/01/09 01:52:33;;;;;;;16.97;13.47;;;2.60;99.90;;;;;;5034362;28;20959;-62
2021/01/09 01:55:00;;;;;;;20.77;15.80;;;2.70;99.90;;;;;;5034456;28;20457;-63
2021/01/09 01:57:27;;;;;;;23.63;18.33;;;2.50;99.90;;;;;;5031688;28;20453;-63
2021/01/09 01:59:53;;;;;;;19.60;16.17;;;2.50;99.90;;;;;;5034219;28;20944;-62
2021/01/09 02:02:21;;;;;;;21.10;17.00;;;2.50;99.90;;;;;;5034063;28;20445;-62
2021/01/09 02:04:50;;;;;;;20.53;15.90;;;2.50;99.90;;;;;;5034227;28;20460;-63
2021/01/09 02:07:21;;;;;;;20.30;15.80;;;2.50;99.90;;;;;;5033906;28;20595;-64
2021/01/09 02:09:51;;;;;;;18.13;14.30;;;2.50;99.90;;;;;;5034089;28;20995;-63
2021/01/09 02:12:19;;;;;;;13.73;11.93;;;2.50;99.90;;;;;;5034034;28;20461;-63
2021/01/09 02:14:50;;;;;;;15.30;13.00;;;3.00;99.90;;;;;;5034630;28;20853;-63
2021/01/09 02:17:17;;;;;;;17.50;14.37;;;2.90;99.90;;;;;;5033741;28;20990;-63
2021/01/09 02:19:45;;;;;;;15.70;13.83;;;2.70;99.90;;;;;;5033579;28;20472;-63
2021/01/09 02:22:12;;;;;;;17.03;13.37;;;2.70;99.90;;;;;;5034243;28;20483;-63
2021/01/09 02:24:40;;;;;;;17.27;13.83;;;2.60;99.90;;;;;;5034535;28;20461;-64
2021/01/09 02:27:07;;;;;;;13.67;11.20;;;2.60;99.90;;;;;;5034496;28;20538;-66
2021/01/09 02:29:36;;;;;;;15.47;13.87;;;2.70;99.90;;;;;;5033983;28;20873;-63
2021/01/09 02:32:05;;;;;;;14.60;12.87;;;2.80;99.90;;;;;;5033873;28;20449;-63
2021/01/09 02:34:38;;;;;;;15.37;12.87;;;2.70;99.90;;;;;;5033582;28;20457;-64
2021/01/09 02:37:05;;;;;;;16.20;13.67;;;2.70;99.90;;;;;;5033627;28;20453;-63
2021/01/09 02:39:32;;;;;;;18.17;13.57;;;2.60;99.90;;;;;;5033341;28;20477;-64
2021/01/09 02:42:01;;;;;;;10.80;9.67;;;2.70;99.90;;;;;;5033577;28;20815;-63
2021/01/09 02:44:28;;;;;;;15.17;13.60;;;3.00;99.90;;;;;;5033245;28;20453;-63
2021/01/09 02:46:54;;;;;;;16.30;14.63;;;2.90;99.90;;;;;;5033214;28;20507;-63
2021/01/09 02:49:20;;;;;;;15.97;14.27;;;2.70;99.90;;;;;;5033275;28;20473;-63
2021/01/09 02:51:47;;;;;;;15.37;13.77;;;2.80;99.90;;;;;;5033358;28;20461;-63
2021/01/09 02:54:13;;;;;;;17.40;14.70;;;2.80;99.90;;;;;;5031647;28;20461;-63
2021/01/09 02:56:39;;;;;;;16.60;13.77;;;2.60;99.90;;;;;;5033957;28;20444;-64
2021/01/09 02:59:06;;;;;;;16.23;14.03;;;2.60;99.90;;;;;;5032875;28;20522;-64
2021/01/09 03:01:33;;;;;;;15.40;13.80;;;2.60;99.90;;;;;;5033606;28;20944;-64
2021/01/09 03:03:59;;;;;;;15.97;14.23;;;2.50;99.90;;;;;;5033292;28;20462;-64
2021/01/09 03:06:26;;;;;;;17.70;14.60;;;2.50;99.90;;;;;;5032954;28;20449;-66
2021/01/09 03:08:53;;;;;;;17.70;14.63;;;2.60;99.90;;;;;;5032488;28;20480;-65
2021/01/09 03:11:19;;;;;;;18.20;15.63;;;2.70;99.90;;;;;;5033247;28;20445;-65
2021/01/09 03:13:46;;;;;;;20.00;15.93;;;2.70;99.90;;;;;;5032957;28;20948;-64
2021/01/09 03:16:13;;;;;;;17.70;15.33;;;2.60;99.90;;;;;;5033074;28;20444;-64
2021/01/09 03:18:40;;;;;;;18.67;14.90;;;2.50;99.90;;;;;;5033177;28;20473;-64
2021/01/09 03:21:06;;;;;;;18.13;15.60;;;2.50;99.90;;;;;;5034347;28;20503;-64
2021/01/09 03:23:33;;;;;;;17.27;15.47;;;2.50;99.90;;;;;;5033900;28;20460;-64
2021/01/09 03:25:59;;;;;;;19.53;15.57;;;2.40;99.90;;;;;;5033743;28;20453;-64
2021/01/09 03:28:25;;;;;;;17.83;14.83;;;2.50;99.90;;;;;;5032168;28;20518;-64
2021/01/09 03:30:52;;;;;;;15.97;12.40;;;2.50;99.90;;;;;;5033980;28;20457;-64
2021/01/09 03:33:20;;;;;;;16.30;14.17;;;2.60;99.90;;;;;;5043644;28;20444;-64
2021/01/09 03:35:46;;;;;;;18.07;14.77;;;2.70;99.90;;;;;;5043897;28;20449;-64
2021/01/09 03:38:12;;;;;;;17.50;14.00;;;2.60;99.90;;;;;;5041624;28;21007;-64
2021/01/09 03:40:39;;;;;;;17.87;14.87;;;2.50;99.90;;;;;;5040194;28;20463;-64
2021/01/09 03:43:05;;;;;;;21.73;16.30;;;2.60;99.90;;;;;;5040026;28;20875;-65
2021/01/09 03:45:31;;;;;;;18.10;14.83;;;2.60;99.90;;;;;;5041608;28;20457;-64
2021/01/09 03:47:58;;;;;;;18.03;14.53;;;2.60;99.90;;;;;;5038637;28;20979;-66
2021/01/09 03:50:25;;;;;;;16.63;14.70;;;2.60;99.90;;;;;;5032781;28;20449;-63
2021/01/09 03:52:51;;;;;;;16.70;14.23;;;2.60;99.90;;;;;;5032318;28;20454;-63
2021/01/09 03:55:17;;;;;;;17.70;14.13;;;2.50;99.90;;;;;;5032225;28;20959;-63
2021/01/09 03:57:44;;;;;;;16.73;14.50;;;2.50;99.90;;;;;;5032138;28;20510;-63
2021/01/09 04:00:12;;;;;;;18.40;15.83;;;2.50;99.90;;;;;;5032048;28;20948;-65
2021/01/09 04:02:39;;;;;;;17.43;14.57;;;2.40;99.90;;;;;;5032636;28;20445;-62
2021/01/09 04:05:07;;;;;;;19.27;17.17;;;2.40;99.90;;;;;;5032130;28;20456;-63
2021/01/09 04:07:34;;;;;;;19.90;17.17;;;2.10;99.90;;;;;;5031952;28;20488;-63
2021/01/09 04:10:01;;;;;;;19.47;17.43;;;1.90;99.90;;;;;;5031768;28;20452;-62
2021/01/09 04:12:27;;;;;;;20.13;18.00;;;1.80;99.90;;;;;;5031799;28;20464;-63
2021/01/09 04:14:53;;;;;;;19.90;17.83;;;1.80;99.90;;;;;;5031637;28;20844;-63
2021/01/09 04:17:19;;;;;;;20.37;18.30;;;1.80;99.90;;;;;;5031864;28;20449;-63
2021/01/09 04:19:46;;;;;;;20.27;17.83;;;1.80;99.90;;;;;;5031809;28;20473;-63
2021/01/09 04:22:12;;;;;;;19.23;17.23;;;1.80;99.90;;;;;;5031168;28;20502;-63
2021/01/09 04:24:39;;;;;;;19.87;17.77;;;1.80;99.90;;;;;;5031747;28;20460;-63
2021/01/09 04:27:06;;;;;;;19.43;17.43;;;1.80;99.90;;;;;;5031534;28;20527;-63
2021/01/09 04:29:32;;;;;;;19.43;17.30;;;1.80;99.90;;;;;;5029897;28;20496;-64
2021/01/09 04:31:58;;;;;;;21.50;19.20;;;1.80;99.90;;;;;;5029441;28;20906;-64
2021/01/09 04:34:26;;;;;;;20.70;18.37;;;1.80;99.90;;;;;;5031236;28;20829;-64
2021/01/09 04:36:53;;;;;;;22.37;19.97;;;1.80;99.90;;;;;;5031530;28;20437;-63
2021/01/09 04:39:21;;;;;;;19.33;17.33;;;1.80;99.90;;;;;;5030433;28;20553;-63
2021/01/09 04:41:48;;;;;;;21.33;19.07;;;1.80;99.90;;;;;;5031107;28;20472;-63
2021/01/09 04:44:15;;;;;;;20.63;18.43;;;1.80;99.90;;;;;;5029040;28;20464;-63
2021/01/09 04:46:47;;;;;;;21.97;19.60;;;1.70;99.90;;;;;;5031005;28;20983;-63
2021/01/09 04:49:14;;;;;;;20.70;18.50;;;1.70;99.90;;;;;;5031011;28;20469;-65
2021/01/09 04:51:42;;;;;;;20.17;18.07;;;1.70;99.90;;;;;;5030050;28;20490;-65
2021/01/09 04:54:12;;;;;;;19.00;17.20;;;1.70;99.90;;;;;;5028238;28;20476;-65
2021/01/09 04:56:39;;;;;;;19.27;17.20;;;1.80;99.90;;;;;;5031370;28;20453;-63
2021/01/09 04:59:07;;;;;;;20.13;18.13;;;1.80;99.90;;;;;;5032072;28;20495;-63
2021/01/09 05:01:34;;;;;;;20.97;18.87;;;1.80;99.90;;;;;;5034963;28;20507;-63
2021/01/09 05:04:01;;;;;;;21.03;18.83;;;1.80;99.90;;;;;;5034676;28;20556;-63
2021/01/09 05:06:27;;;;;;;21.73;19.43;;;1.70;99.90;;;;;;5034811;28;20444;-63
2021/01/09 05:08:54;;;;;;;21.67;19.27;;;1.80;99.90;;;;;;5033677;28;20504;-62
2021/01/09 05:11:20;;;;;;;21.07;18.93;;;1.70;99.90;;;;;;5035401;28;20875;-63
2021/01/09 05:13:47;;;;;;;21.60;19.50;;;1.70;99.90;;;;;;5034079;28;20457;-63
2021/01/09 05:16:15;;;;;;;22.17;19.97;;;1.70;99.90;;;;;;5034267;28;20542;-63
2021/01/09 05:18:42;;;;;;;23.37;20.90;;;1.70;99.90;;;;;;5033950;28;21069;-62
2021/01/09 05:21:10;;;;;;;23.83;20.40;;;1.70;99.90;;;;;;5033839;28;20479;-63
2021/01/09 05:23:49;;;;;;;24.40;21.20;;;1.70;99.90;;;;;;5034643;28;20456;-64
2021/01/09 05:26:16;;;;;;;22.73;19.50;;;1.70;99.90;;;;;;5033904;28;20963;-64
2021/01/09 05:28:46;;;;;;;23.07;20.30;;;1.70;99.90;;;;;;5033915;28;20496;-61
2021/01/09 05:31:13;;;;;;;22.80;20.30;;;1.70;99.90;;;;;;5033184;28;20467;-62
2021/01/09 05:33:41;;;;;;;22.47;19.90;;;1.70;99.90;;;;;;5033489;28;20471;-64
2021/01/09 05:36:08;;;;;;;23.23;20.87;;;1.70;99.90;;;;;;5033960;28;20491;-64
2021/01/09 05:38:36;;;;;;;24.73;20.80;;;1.70;99.90;;;;;;5034507;28;20464;-64
2021/01/09 05:41:04;;;;;;;22.37;20.00;;;1.60;99.90;;;;;;5033634;28;20825;-65
2021/01/09 05:43:31;;;;;;;21.40;19.20;;;1.70;99.90;;;;;;5033902;28;20452;-63
2021/01/09 05:45:58;;;;;;;22.53;19.90;;;1.70;99.90;;;;;;5018182;28;20838;-63
2021/01/09 05:48:25;;;;;;;22.27;19.87;;;1.70;99.90;;;;;;5034106;28;20492;-63
2021/01/09 05:50:54;;;;;;;23.53;21.13;;;1.70;99.90;;;;;;5032400;28;20987;-64
2021/01/09 05:53:40;;;;;;;21.93;19.63;;;1.60;99.90;;;;;;5032906;28;20464;-65
2021/01/09 05:56:06;;;;;;;23.33;20.93;;;1.60;99.90;;;;;;5032712;28;20469;-65
2021/01/09 05:58:34;;;;;;;24.07;21.47;;;1.60;99.90;;;;;;5033187;28;20476;-64
2021/01/09 06:01:06;;;;;;;22.33;20.13;;;1.60;99.90;;;;;;5033376;28;20461;-64
2021/01/09 06:03:40;;;;;;;22.90;20.47;;;1.70;99.90;;;;;;5032147;28;20476;-64
2021/01/09 06:06:16;;;;;;;20.90;18.83;;;1.70;99.90;;;;;;5033327;28;20459;-65
2021/01/09 06:08:49;;;;;;;21.67;19.37;;;1.60;99.90;;;;;;5051525;28;20510;-64
2021/01/09 06:11:18;;;;;;;22.30;19.63;;;1.60;99.90;;;;;;5043997;28;20457;-64
2021/01/09 06:13:48;;;;;;;21.07;18.83;;;1.60;99.90;;;;;;5032585;28;20472;-64
2021/01/09 06:16:15;;;;;;;26.43;21.53;;;1.60;99.90;;;;;;5027953;28;20529;-65
2021/01/09 06:18:42;;;;;;;21.60;19.23;;;1.60;99.90;;;;;;5032039;28;20476;-65
2021/01/09 06:21:10;;;;;;;22.00;19.70;;;1.60;99.90;;;;;;5033115;28;20448;-64
2021/01/09 06:23:37;;;;;;;21.43;18.97;;;1.70;99.90;;;;;;5032854;28;20563;-64
2021/01/09 06:26:05;;;;;;;24.10;21.50;;;1.60;99.90;;;;;;5033351;28;20453;-64
2021/01/09 06:28:37;;;;;;;22.67;20.20;;;1.60;99.90;;;;;;5032336;28;20492;-65
2021/01/09 06:31:07;;;;;;;22.77;20.37;;;1.60;99.90;;;;;;5026943;28;20974;-65
2021/01/09 06:33:39;;;;;;;21.97;19.70;;;1.60;99.90;;;;;;5031685;28;20462;-64
2021/01/09 06:36:08;;;;;;;22.20;19.90;;;1.60;99.90;;;;;;5033144;28;20453;-64
2021/01/09 06:38:35;;;;;;;21.93;19.30;;;1.60;99.90;;;;;;5032834;28;20481;-65
2021/01/09 06:41:02;;;;;;;23.67;19.93;;;1.50;99.90;;;;;;5033264;28;20448;-65
2021/01/09 06:43:30;;;;;;;22.00;19.60;;;1.50;99.90;;;;;;5030580;28;20973;-65
2021/01/09 06:45:56;;;;;;;22.70;20.30;;;1.50;99.90;;;;;;5032496;28;20461;-65
2021/01/09 06:48:22;;;;;;;23.23;20.83;;;1.50;99.90;;;;;;5032198;28;20495;-64
2021/01/09 06:50:48;;;;;;;23.00;20.60;;;1.50;99.90;;;;;;5032671;28;20463;-64
2021/01/09 06:53:16;;;;;;;23.30;20.40;;;1.50;99.90;;;;;;5031935;28;20461;-65
2021/01/09 06:56:07;;;;;;;20.47;18.30;;;1.50;99.90;;;;;;5032158;28;20472;-65
2021/01/09 06:58:35;;;;;;;20.83;18.33;;;1.50;99.90;;;;;;5031229;28;20476;-65
2021/01/09 07:01:21;;;;;;;9.00;6.23;;;1.50;99.90;;;;;;5031910;28;21073;-65
2021/01/09 07:03:48;;;;;;;7.03;5.10;;;3.90;99.90;;;;;;5024459;28;20465;-65
2021/01/09 07:06:15;;;;;;;10.27;6.80;;;11.10;99.90;;;;;;5032942;28;20445;-64
2021/01/09 07:08:43;;;;;;;10.87;6.17;;;13.20;99.90;;;;;;5031931;28;20488;-65
2021/01/09 07:11:12;;;;;;;6.80;6.20;;;13.90;99.90;;;;;;5031655;28;20479;-66
2021/01/09 07:13:39;;;;;;;6.23;5.63;;;15.20;99.90;;;;;;5044478;28;20444;-66
2021/01/09 07:16:07;;;;;;;6.53;5.23;;;16.10;99.90;;;;;;5042830;28;20472;-66
2021/01/09 07:18:37;;;;;;;6.00;5.50;;;16.70;99.90;;;;;;5032694;28;20495;-66
2021/01/09 07:21:07;;;;;;;6.30;5.70;;;17.40;99.90;;;;;;5032227;28;20471;-66
2021/01/09 07:23:34;;;;;;;5.70;5.13;;;18.10;99.90;;;;;;5031408;28;21185;-66
2021/01/09 07:26:03;;;;;;;5.47;5.07;;;18.20;99.90;;;;;;5032241;28;20455;-66
2021/01/09 07:28:34;;;;;;;5.17;4.53;;;18.00;99.90;;;;;;5031978;28;20488;-67
2021/01/09 07:31:04;;;;;;;5.50;5.00;;;18.60;99.90;;;;;;5011633;23;20503;-67
2021/01/09 07:33:33;;;;;;;4.97;4.53;;;18.80;99.90;;;;;;4958271;28;20468;-67
2021/01/09 07:36:00;;;;;;;4.70;4.30;;;19.40;99.90;;;;;;4954747;29;20462;-67
2021/01/09 07:38:26;;;;;;;4.47;4.07;;;19.70;99.90;;;;;;4957350;28;20463;-67
2021/01/09 07:40:54;;;;;;;4.10;3.77;;;20.00;99.90;;;;;;4986365;28;20466;-67
2021/01/09 07:43:38;;;;;;;6.60;6.10;;;20.10;99.90;;;;;;4976801;28;20478;-67
2021/01/09 07:46:23;;;;;;;4.47;4.17;;;20.10;99.90;;;;;;4975880;28;20575;-67
2021/01/09 07:48:50;;;;;;;4.73;3.20;;;19.90;99.90;;;;;;4971671;28;20908;-67
2021/01/09 07:51:18;;;;;;;3.43;3.13;;;20.20;99.90;;;;;;4974103;28;20464;-67
2021/01/09 07:53:48;;;;;;;4.00;3.70;;;20.30;99.90;;;;;;4972722;28;20982;-67
2021/01/09 07:56:37;;;;;;;4.33;3.93;;;20.20;99.90;;;;;;4972432;28;20530;-67
2021/01/09 07:59:04;;;;;;;4.60;4.20;;;20.30;99.90;;;;;;4972396;28;20456;-67
2021/01/09 08:01:41;;;;;;;3.40;3.10;;;20.40;99.90;;;;;;4973420;28;20834;-67
2021/01/09 08:04:10;;;;;;;3.37;3.10;;;20.40;99.90;;;;;;4974133;28;20950;-67
2021/01/09 08:06:36;;;;;;;4.03;3.73;;;20.50;99.90;;;;;;4973440;28;20471;-67
2021/01/09 08:09:03;;;;;;;4.13;3.83;;;20.30;99.90;;;;;;4989962;28;20490;-67
2021/01/09 08:11:29;;;;;;;3.70;3.40;;;20.40;99.90;;;;;;4993242;28;20471;-67
2021/01/09 08:14:01;;;;;;;11.37;10.47;;;20.40;99.90;;;;;;4978698;28;20459;-67
2021/01/09 08:16:28;;;;;;;15.00;13.80;;;11.20;99.90;;;;;;4974889;28;20512;-65
2021/01/09 08:19:08;;;;;;;16.67;15.07;;;4.80;99.90;;;;;;4975446;28;20447;-65
2021/01/09 08:21:35;;;;;;;17.30;15.53;;;3.10;99.90;;;;;;4973265;28;20468;-64
2021/01/09 08:24:01;;;;;;;16.17;14.47;;;2.60;99.90;;;;;;4973361;28;20948;-64
2021/01/09 08:26:31;;;;;;;18.57;15.63;;;2.40;99.90;;;;;;4972043;28;20463;-64
2021/01/09 08:28:58;;;;;;;19.10;16.07;;;2.30;99.90;;;;;;4973735;28;20483;-65
2021/01/09 08:31:25;;;;;;;17.63;15.83;;;2.20;99.90;;;;;;4975414;28;20491;-65
2021/01/09 08:33:52;;;;;;;20.80;17.30;;;2.10;99.90;;;;;;4978897;28;20457;-65
2021/01/09 08:36:21;;;;;;;18.47;16.20;;;2.10;99.90;;;;;;4981282;28;20463;-66
2021/01/09 08:38:50;;;;;;;18.93;16.93;;;2.10;99.90;;;;;;4961984;29;20932;-64
2021/01/09 08:41:16;;;;;;;18.57;16.50;;;2.10;99.90;;;;;;4975833;28;20560;-64
2021/01/09 08:43:42;;;;;;;20.30;18.13;;;2.00;99.90;;;;;;4980462;28;20962;-67
2021/01/09 08:46:13;;;;;;;22.30;18.77;;;2.00;99.90;;;;;;4977311;28;20827;-68
2021/01/09 08:48:39;;;;;;;20.97;18.50;;;2.00;99.90;;;;;;4977532;28;20861;-68
2021/01/09 08:51:10;;;;;;;19.40;17.27;;;2.00;99.90;;;;;;4977908;28;20479;-66
2021/01/09 08:53:42;;;;;;;20.40;17.87;;;2.00;99.90;;;;;;4978761;28;20463;-65
2021/01/09 08:56:09;;;;;;;23.17;18.57;;;2.00;99.90;;;;;;4978427;28;20459;-67
2021/01/09 08:58:38;;;;;;;22.30;19.40;;;2.00;99.90;;;;;;4978485;28;20779;-67
2021/01/09 09:01:07;;;;;;;21.70;19.27;;;1.90;99.90;;;;;;4978240;28;20479;-67
2021/01/09 09:03:36;;;;;;;22.93;19.90;;;2.00;99.90;;;;;;4979078;28;20541;-66
2021/01/09 09:06:07;;;;;;;22.00;18.73;;;1.90;99.90;;;;;;4979056;28;20447;-67
2021/01/09 09:08:35;;;;;;;20.93;17.83;;;1.90;99.90;;;;;;4978407;28;21041;-67
2021/01/09 09:11:02;;;;;;;23.10;18.50;;;1.80;99.90;;;;;;4978912;28;20826;-66
2021/01/09 09:13:28;;;;;;;23.93;20.00;;;1.80;99.90;;;;;;4979167;28;20447;-66
2021/01/09 09:15:54;;;;;;;22.80;19.63;;;1.90;99.90;;;;;;4979206;28;20518;-66
2021/01/09 09:18:21;;;;;;;24.23;19.97;;;1.80;99.90;;;;;;4978956;28;20439;-68
2021/01/09 09:20:49;;;;;;;21.30;19.00;;;1.80;99.90;;;;;;4978804;28;20471;-69
2021/01/09 09:23:24;;;;;;;21.00;18.80;;;1.80;99.90;;;;;;4978994;28;20528;-69
2021/01/09 09:26:10;;;;;;;20.83;18.73;;;1.80;99.90;;;;;;4979109;28;20451;-68
2021/01/09 09:28:44;;;;;;;22.57;19.70;;;1.90;99.90;;;;;;4978754;28;20871;-69
2021/01/09 09:31:21;;;;;;;22.57;19.77;;;1.80;99.90;;;;;;4976231;28;20521;-68
2021/01/09 09:34:07;;;;;;;21.03;18.50;;;1.90;99.90;;;;;;4976944;28;20476;-69
2021/01/09 09:36:37;;;;;;;21.20;18.87;;;2.20;99.90;;;;;;4978363;28;20451;-64
2021/01/09 09:39:17;;;;;;;21.10;18.90;;;2.10;99.90;;;;;;4976512;28;20447;-66
2021/01/09 09:41:52;;;;;;;19.40;17.33;;;2.00;99.90;;;;;;4975457;28;20533;-66
2021/01/09 09:44:19;;;;;;;21.40;19.20;;;2.00;99.90;;;;;;4973010;28;20454;-65
2021/01/09 09:46:46;;;;;;;21.23;18.20;;;2.00;99.90;;;;;;4974329;28;20848;-66
2021/01/09 09:49:12;;;;;;;19.00;17.10;;;2.00;99.90;;;;;;4973847;28;20479;-66
2021/01/09 09:51:38;;;;;;;19.67;16.40;;;2.10;99.90;;;;;;4974039;28;20667;-66
2021/01/09 09:54:05;;;;;;;21.50;17.13;;;2.00;99.90;;;;;;4975454;28;20455;-66
2021/01/09 09:56:37;;;;;;;22.83;19.07;;;2.00;99.90;;;;;;4977835;28;20858;-67
2021/01/09 09:59:04;;;;;;;21.33;19.07;;;1.90;99.90;;;;;;4974064;28;20459;-66
2021/01/09 10:01:31;;;;;;;23.07;18.60;;;1.90;99.90;;;;;;4973412;28;20502;-65
2021/01/09 10:03:58;;;;;;;11.13;6.53;;;2.00;99.90;;;;;;4974500;28;20456;-67
2021/01/09 10:06:34;;;;;;;18.63;16.73;;;4.00;99.90;;;;;;4973466;28;20529;-66
2021/01/09 10:09:13;;;;;;;20.60;18.40;;;2.60;99.90;;;;;;4976437;28;20514;-66
2021/01/09 10:11:41;;;;;;;21.20;18.93;;;2.40;99.90;;;;;;4976482;28;20522;-66
2021/01/09 10:14:07;;;;;;;23.37;18.57;;;2.00;99.90;;;;;;4976530;28;20455;-66
2021/01/09 10:16:34;;;;;;;20.93;17.00;;;2.00;99.90;;;;;;4976548;28;20447;-65
2021/01/09 10:19:00;;;;;;;20.70;18.50;;;2.10;99.90;;;;;;4975108;28;20474;-66
2021/01/09 10:21:28;;;;;;;20.03;17.90;;;2.00;99.90;;;;;;4983955;28;20569;-66
2021/01/09 10:23:54;;;;;;;20.30;17.47;;;2.00;99.90;;;;;;4978022;28;20499;-66
2021/01/09 10:26:28;;;;;;;20.67;18.13;;;1.90;99.90;;;;;;4977024;28;20470;-66
2021/01/09 10:28:55;;;;;;;19.83;17.57;;;1.90;99.90;;;;;;4995236;28;20490;-66
2021/01/09 10:31:29;;;;;;;20.43;18.33;;;1.90;99.90;;;;;;4981917;28;20483;-66
2021/01/09 10:33:55;;;;;;;19.37;17.37;;;2.00;99.90;;;;;;4974595;28;20459;-67
2021/01/09 10:36:25;;;;;;;19.17;17.13;;;1.90;99.90;;;;;;4974979;28;20452;-67
2021/01/09 10:38:52;;;;;;;22.63;18.50;;;1.90;99.90;;;;;;4974315;28;20460;-67
2021/01/09 10:41:18;;;;;;;20.97;17.13;;;2.00;99.90;;;;;;4975341;28;20472;-66
2021/01/09 10:43:44;;;;;;;19.70;17.60;;;2.00;99.90;;;;;;4974335;28;20451;-67
2021/01/09 10:46:17;;;;;;;20.30;17.90;;;2.10;99.90;;;;;;4974077;28;20466;-68
2021/01/09 10:48:44;;;;;;;20.00;17.83;;;2.00;99.90;;;;;;4974254;28;20486;-65
2021/01/09 10:51:13;;;;;;;20.20;18.10;;;2.00;99.90;;;;;;4974238;28;20994;-67
2021/01/09 10:53:39;;;;;;;19.10;16.47;;;2.00;99.90;;;;;;4974156;28;20455;-68
2021/01/09 10:56:06;;;;;;;20.93;18.70;;;2.10;99.90;;;;;;4954828;28;20940;-68
2021/01/09 10:58:32;;;;;;;21.27;17.80;;;2.20;99.90;;;;;;4966548;28;20512;-68
2021/01/09 11:00:58;;;;;;;21.30;17.43;;;2.10;99.90;;;;;;4973367;28;20487;-67
2021/01/09 11:03:25;;;;;;;19.83;17.73;;;2.10;99.90;;;;;;4974643;28;20459;-65
2021/01/09 11:05:52;;;;;;;20.47;17.40;;;2.40;99.90;;;;;;4974228;28;20447;-66
2021/01/09 11:08:18;;;;;;;19.80;17.63;;;2.30;99.90;;;;;;4974045;28;20490;-66
2021/01/09 11:10:44;;;;;;;20.97;17.50;;;2.20;99.90;;;;;;4973700;28;20471;-66
2021/01/09 11:13:10;;;;;;;20.80;16.70;;;2.20;99.90;;;;;;4973918;28;20965;-66
2021/01/09 11:15:37;;;;;;;19.90;17.70;;;2.20;99.90;;;;;;4974349;28;21017;-66
2021/01/09 11:18:03;;;;;;;19.07;16.53;;;2.30;99.90;;;;;;4973844;28;20443;-65
2021/01/09 11:20:30;;;;;;;20.33;18.13;;;2.20;99.90;;;;;;4973696;28;20481;-66
2021/01/09 11:22:56;;;;;;;19.23;17.23;;;2.20;99.90;;;;;;4974051;28;20498;-66
2021/01/09 11:25:23;;;;;;;21.50;16.93;;;2.20;99.90;;;;;;4973724;28;20455;-66
2021/01/09 11:27:49;;;;;;;22.80;18.60;;;2.20;99.90;;;;;;4976511;28;20493;-65
2021/01/09 11:30:17;;;;;;;21.77;17.80;;;2.20;99.90;;;;;;4968742;28;20487;-66
2021/01/09 11:32:43;;;;;;;19.80;16.70;;;2.30;99.90;;;;;;4973976;28;20454;-67
2021/01/09 11:35:10;;;;;;;19.13;17.07;;;2.20;99.90;;;;;;4976189;28;20446;-66
2021/01/09 11:37:37;;;;;;;19.47;16.70;;;2.30;99.90;;;;;;4975607;28;20454;-66
2021/01/09 11:40:06;;;;;;;20.67;17.30;;;2.30;99.90;;;;;;4973812;28;20475;-67
2021/01/09 11:42:32;;;;;;;20.30;16.63;;;2.30;99.90;;;;;;4973534;28;20451;-67
2021/01/09 11:44:59;;;;;;;18.20;16.30;;;2.30;99.90;;;;;;4974080;28;20474;-67
2021/01/09 11:47:25;;;;;;;16.93;15.20;;;2.30;99.90;;;;;;4984536;28;20467;-67
2021/01/09 11:49:51;;;;;;;19.43;17.27;;;2.40;99.90;;;;;;4971362;28;20486;-65
2021/01/09 11:52:18;;;;;;;17.57;15.70;;;2.40;99.90;;;;;;4973152;28;20491;-66
2021/01/09 11:54:45;;;;;;;18.90;16.57;;;2.50;99.90;;;;;;4973054;28;20455;-66
2021/01/09 11:57:11;;;;;;;18.60;16.33;;;2.50;99.90;;;;;;4973518;28;20460;-66
2021/01/09 11:59:38;;;;;;;20.10;16.97;;;2.40;99.90;;;;;;4972698;28;20947;-70
2021/01/09 12:02:04;;;;;;;19.17;17.10;;;2.50;99.90;;;;;;4973183;28;20525;-67
2021/01/09 12:04:30;;;;;;;18.47;16.57;;;2.60;99.90;;;;;;4973422;28;20450;-67
2021/01/09 12:06:57;;;;;;;19.60;16.60;;;2.60;99.90;;;;;;4973492;28;20478;-68
2021/01/09 12:09:23;;;;;;;19.13;17.07;;;2.60;99.90;;;;;;4972214;28;20483;-68
2021/01/09 12:11:54;;;;;;;18.90;16.83;;;2.60;99.90;;;;;;4972894;28;20469;-67
2021/01/09 12:14:21;;;;;;;21.97;18.93;;;2.60;99.90;;;;;;4973258;28;20452;-68
2021/01/09 12:16:47;;;;;;;20.63;18.07;;;2.60;99.90;;;;;;4972893;28;20447;-67
2021/01/09 12:19:13;;;;;;;19.57;17.50;;;2.60;99.90;;;;;;4972835;28;20498;-68
2021/01/09 12:21:39;;;;;;;17.60;15.73;;;2.50;99.90;;;;;;4972877;28;20847;-68
2021/01/09 12:24:07;;;;;;;19.90;17.13;;;2.60;99.90;;;;;;4972973;28;20459;-68
2021/01/09 12:26:33;;;;;;;17.30;15.60;;;2.60;99.90;;;;;;4972942;28;20451;-68
2021/01/09 12:29:00;;;;;;;19.23;17.23;;;2.70;99.90;;;;;;4972847;28;20487;-67
2021/01/09 12:31:33;;;;;;;18.57;16.57;;;3.00;99.90;;;;;;4972487;28;20479;-67
2021/01/09 12:34:00;;;;;;;19.53;16.20;;;3.00;99.90;;;;;;4972959;28;20951;-68
2021/01/09 12:36:26;;;;;;;16.77;15.17;;;3.10;99.90;;;;;;4972475;28;20453;-68
2021/01/09 12:38:53;;;;;;;17.93;16.13;;;3.10;99.90;;;;;;4972829;28;20525;-66
2021/01/09 12:41:19;;;;;;;17.60;15.80;;;3.10;99.90;;;;;;4972418;28;20482;-67
2021/01/09 12:43:46;;;;;;;15.47;14.07;;;3.20;99.90;;;;;;4972798;28;20455;-67